createdAt,value
2023-10-26T00:01:23.243Z,10.30
2023-10-26T00:03:51.603Z,10.30
2023-10-26T00:06:19.840Z,10.30
2023-10-26T00:08:50.741Z,10.30
2023-10-26T00:11:21.672Z,10.30
2023-10-26T00:13:49.883Z,10.30
2023-10-26T00:16:17.706Z,10.30
2023-10-26T00:18:46.066Z,10.40
2023-10-26T00:21:14.385Z,10.40
2023-10-26T00:23:47.345Z,10.40
2023-10-26T00:26:15.129Z,10.40
2023-10-26T00:28:46.499Z,10.30
2023-10-26T00:31:14.953Z,10.40
2023-10-26T00:33:43.104Z,10.40
2023-10-26T00:36:10.909Z,10.40
2023-10-26T00:38:41.413Z,10.40
2023-10-26T00:41:09.208Z,10.40
2023-10-26T00:43:37.344Z,10.40
2023-10-26T00:46:05.276Z,10.50
2023-10-26T00:48:33.633Z,10.50
2023-10-26T00:51:01.598Z,10.50
2023-10-26T00:53:30.155Z,10.60
2023-10-26T00:55:58.059Z,10.50
2023-10-26T00:58:27.452Z,10.60
2023-10-26T01:00:55.304Z,10.60
2023-10-26T01:03:25.307Z,10.60
2023-10-26T01:05:53.335Z,10.60
2023-10-26T01:08:21.856Z,10.60
2023-10-26T01:10:49.905Z,10.60
2023-10-26T01:13:18.799Z,10.60
2023-10-26T01:15:46.594Z,10.70
2023-10-26T01:18:14.786Z,10.70
2023-10-26T01:20:43.904Z,10.70
2023-10-26T01:23:14.464Z,10.70
2023-10-26T01:25:53.037Z,10.70
2023-10-26T01:28:21.469Z,10.70
2023-10-26T01:30:49.264Z,10.80
2023-10-26T01:33:17.495Z,10.80
2023-10-26T01:35:47.283Z,10.70
2023-10-26T01:38:15.983Z,10.70
2023-10-26T01:40:44.530Z,10.70
2023-10-26T01:43:12.661Z,10.80
2023-10-26T01:45:40.438Z,10.80
2023-10-26T01:48:08.634Z,10.80
2023-10-26T01:50:39.003Z,10.80
2023-10-26T01:53:07.884Z,10.80
2023-10-26T01:55:35.932Z,10.80
2023-10-26T01:58:04.296Z,10.70
2023-10-26T02:00:32.182Z,10.80
2023-10-26T02:03:00.731Z,10.80
2023-10-26T02:05:29.242Z,10.80
2023-10-26T02:07:57.519Z,10.80
2023-10-26T02:10:30.363Z,10.80
2023-10-26T02:12:58.624Z,10.80
2023-10-26T02:15:26.786Z,10.90
2023-10-26T02:17:54.935Z,10.80
2023-10-26T02:20:23.108Z,10.80
2023-10-26T02:22:51.185Z,10.80
2023-10-26T02:25:19.025Z,10.80
2023-10-26T02:27:47.346Z,10.80
2023-10-26T02:30:15.428Z,10.80
2023-10-26T02:32:44.767Z,10.80
2023-10-26T02:35:13.641Z,10.80
2023-10-26T02:37:41.984Z,10.80
2023-10-26T02:40:10.411Z,10.80
2023-10-26T02:42:40.277Z,10.80
2023-10-26T02:45:09.822Z,10.80
2023-10-26T02:47:39.114Z,10.80
2023-10-26T02:50:07.844Z,10.80
2023-10-26T02:52:36.805Z,10.80
2023-10-26T02:55:07.069Z,10.80
2023-10-26T02:57:35.117Z,10.80
2023-10-26T03:00:04.035Z,10.80
2023-10-26T03:02:32.761Z,10.80
2023-10-26T03:05:01.917Z,10.80
2023-10-26T03:07:30.265Z,10.90
2023-10-26T03:09:58.164Z,10.90
2023-10-26T03:12:26.456Z,10.90
2023-10-26T03:14:54.302Z,11.00
2023-10-26T03:17:22.529Z,11.00
2023-10-26T03:19:50.313Z,11.00
2023-10-26T03:22:19.842Z,11.10
2023-10-26T03:24:49.535Z,11.10
2023-10-26T03:27:17.767Z,11.10
2023-10-26T03:29:45.755Z,11.10
2023-10-26T03:32:13.993Z,11.20
2023-10-26T03:34:42.014Z,11.20
2023-10-26T03:37:10.345Z,11.20
2023-10-26T03:39:38.127Z,11.30
2023-10-26T03:42:06.591Z,11.30
2023-10-26T03:44:34.518Z,11.30
2023-10-26T03:47:04.868Z,11.30
2023-10-26T03:49:32.745Z,11.40
2023-10-26T03:52:01.124Z,11.40
2023-10-26T03:54:28.993Z,11.40
2023-10-26T03:56:57.299Z,11.50
2023-10-26T03:59:25.191Z,11.50
2023-10-26T04:01:53.349Z,11.50
2023-10-26T04:04:21.205Z,11.50
2023-10-26T04:06:49.320Z,11.50
2023-10-26T04:09:17.096Z,11.50
2023-10-26T04:11:46.258Z,11.50
2023-10-26T04:14:14.007Z,11.60
2023-10-26T04:16:42.116Z,11.60
2023-10-26T04:19:09.898Z,11.60
2023-10-26T04:21:38.008Z,11.60
2023-10-26T04:24:06.018Z,11.60
2023-10-26T04:26:34.200Z,11.60
2023-10-26T04:29:01.923Z,11.50
2023-10-26T04:31:33.323Z,11.50
2023-10-26T04:34:01.549Z,11.60
2023-10-26T04:36:29.981Z,11.60
2023-10-26T04:38:57.840Z,11.50
2023-10-26T04:41:26.053Z,11.50
2023-10-26T04:43:53.903Z,11.60
2023-10-26T04:46:22.024Z,11.60
2023-10-26T04:48:49.947Z,11.60
2023-10-26T04:51:18.135Z,11.50
2023-10-26T04:53:45.909Z,11.50
2023-10-26T04:56:14.185Z,11.60
2023-10-26T04:58:44.410Z,11.60
2023-10-26T05:01:12.539Z,11.60
2023-10-26T05:03:40.546Z,11.60
2023-10-26T05:06:08.761Z,11.60
2023-10-26T05:08:36.665Z,11.60
2023-10-26T05:11:04.957Z,11.60
2023-10-26T05:13:32.916Z,11.60
2023-10-26T05:16:01.273Z,11.60
2023-10-26T05:18:29.199Z,11.60
2023-10-26T05:20:57.443Z,11.60
2023-10-26T05:23:25.267Z,11.60
2023-10-26T05:25:53.347Z,11.60
2023-10-26T05:28:21.170Z,11.60
2023-10-26T05:30:49.312Z,11.60
2023-10-26T05:33:17.170Z,11.60
2023-10-26T05:35:45.767Z,11.60
2023-10-26T05:38:13.625Z,11.60
2023-10-26T05:40:56.834Z,11.60
2023-10-26T05:43:25.135Z,11.60
2023-10-26T05:45:55.922Z,11.60
2023-10-26T05:48:25.269Z,11.60
2023-10-26T05:50:53.440Z,11.60
2023-10-26T05:53:21.154Z,11.60
2023-10-26T05:55:59.193Z,11.60
2023-10-26T05:58:27.487Z,11.50
2023-10-26T06:00:55.869Z,11.50
2023-10-26T06:03:23.797Z,11.50
2023-10-26T06:05:51.967Z,11.50
2023-10-26T06:08:19.855Z,11.50
2023-10-26T06:10:48.037Z,11.50
2023-10-26T06:13:16.596Z,11.50
2023-10-26T06:15:44.962Z,11.60
2023-10-26T06:18:13.992Z,11.60
2023-10-26T06:20:42.273Z,11.60
2023-10-26T06:23:11.194Z,11.60
2023-10-26T06:25:40.294Z,11.60
2023-10-26T06:28:08.025Z,11.60
2023-10-26T06:30:36.290Z,11.60
2023-10-26T06:33:04.294Z,11.60
2023-10-26T06:35:33.531Z,11.60
2023-10-26T06:38:01.393Z,11.60
2023-10-26T06:40:29.483Z,11.70
2023-10-26T06:42:57.992Z,11.70
2023-10-26T06:45:26.792Z,11.60
2023-10-26T06:47:54.622Z,11.70
2023-10-26T06:50:24.536Z,11.70
2023-10-26T06:52:52.374Z,11.70
2023-10-26T06:55:30.030Z,11.70
2023-10-26T06:57:58.955Z,11.70
2023-10-26T07:00:27.423Z,11.70
2023-10-26T07:02:55.514Z,11.80
2023-10-26T07:05:23.688Z,11.70
2023-10-26T07:07:51.532Z,11.70
2023-10-26T07:10:22.392Z,11.70
2023-10-26T07:12:50.232Z,11.70
2023-10-26T07:15:20.518Z,11.70
2023-10-26T07:17:48.364Z,11.70
2023-10-26T07:20:16.577Z,11.80
2023-10-26T07:22:44.382Z,11.70
2023-10-26T07:25:14.730Z,11.80
2023-10-26T07:27:42.627Z,11.80
2023-10-26T07:30:12.837Z,11.80
2023-10-26T07:32:40.806Z,11.80
2023-10-26T07:35:09.330Z,11.80
2023-10-26T07:37:38.965Z,11.80
2023-10-26T07:40:28.424Z,11.80
2023-10-26T07:42:55.997Z,11.80
2023-10-26T07:45:26.906Z,11.80
2023-10-26T07:48:01.646Z,11.80
2023-10-26T07:50:30.555Z,11.90
2023-10-26T07:52:58.580Z,11.90
2023-10-26T07:55:26.687Z,11.90
2023-10-26T07:57:55.273Z,11.90
2023-10-26T08:00:23.696Z,12.00
2023-10-26T08:02:51.687Z,12.00
2023-10-26T08:05:20.024Z,12.00
2023-10-26T08:07:48.799Z,12.00
2023-10-26T08:10:16.937Z,12.00
2023-10-26T08:12:44.742Z,12.00
2023-10-26T08:16:08.944Z,12.00
2023-10-26T08:18:00.727Z,12.00
2023-10-26T08:20:28.876Z,12.00
2023-10-26T08:22:56.665Z,12.10
2023-10-26T08:25:27.106Z,12.10
2023-10-26T08:27:54.905Z,12.10
2023-10-26T08:30:22.936Z,12.20
2023-10-26T08:32:55.547Z,12.20
2023-10-26T08:35:24.260Z,12.20
2023-10-26T08:37:52.429Z,12.30
2023-10-26T08:40:21.165Z,12.30
2023-10-26T08:42:49.210Z,12.40
2023-10-26T08:45:25.325Z,12.40
2023-10-26T08:47:54.054Z,12.50
2023-10-26T08:50:24.819Z,12.50
2023-10-26T08:52:52.684Z,12.50
2023-10-26T08:55:21.433Z,12.50
2023-10-26T08:57:55.161Z,12.50
2023-10-26T09:00:24.342Z,12.50
2023-10-26T09:02:52.579Z,12.50
2023-10-26T09:05:21.076Z,12.50
2023-10-26T09:07:49.020Z,12.60
2023-10-26T09:10:49.453Z,12.60
2023-10-26T09:13:30.561Z,12.60
2023-10-26T09:16:00.418Z,12.60
2023-10-26T09:18:32.513Z,12.70
2023-10-26T09:21:11.532Z,12.70
2023-10-26T09:23:41.318Z,12.80
2023-10-26T09:26:11.115Z,12.80
2023-10-26T09:28:53.075Z,12.90
2023-10-26T09:31:23.335Z,12.90
2023-10-26T09:33:51.988Z,12.90
2023-10-26T09:36:24.038Z,13.00
2023-10-26T09:38:53.244Z,13.00
2023-10-26T09:41:21.426Z,13.00
2023-10-26T09:43:49.645Z,13.10
2023-10-26T09:46:21.583Z,13.10
2023-10-26T09:48:53.395Z,13.20
2023-10-26T09:51:22.344Z,13.20
2023-10-26T09:53:54.039Z,13.30
2023-10-26T09:56:27.831Z,13.30
2023-10-26T09:58:56.138Z,13.30
2023-10-26T10:01:35.737Z,13.40
2023-10-26T10:04:10.833Z,13.40
2023-10-26T10:06:50.147Z,13.50
2023-10-26T10:09:25.909Z,13.60
2023-10-26T10:12:09.835Z,13.70
2023-10-26T10:14:49.721Z,13.90
2023-10-26T10:17:21.485Z,14.00
2023-10-26T10:20:15.234Z,14.00
2023-10-26T10:22:47.014Z,14.10
2023-10-26T10:25:15.705Z,14.20
2023-10-26T10:27:49.557Z,14.30
2023-10-26T10:30:22.712Z,14.40
2023-10-26T10:32:53.229Z,14.40
2023-10-26T10:35:42.646Z,14.40
2023-10-26T10:38:13.245Z,14.40
2023-10-26T10:40:42.256Z,14.40
2023-10-26T10:43:11.108Z,14.40
2023-10-26T10:45:39.109Z,14.30
2023-10-26T10:48:07.772Z,14.30
2023-10-26T10:50:36.126Z,14.20
2023-10-26T10:53:06.863Z,14.20
2023-10-26T10:55:34.812Z,14.30
2023-10-26T11:00:05.031Z,14.30
2023-10-26T11:02:33.596Z,14.30
2023-10-26T11:05:15.675Z,14.30
2023-10-26T11:07:48.180Z,14.40
2023-10-26T11:10:16.102Z,14.50
2023-10-26T11:12:53.433Z,14.60
2023-10-26T11:15:21.190Z,14.70
2023-10-26T11:17:49.502Z,14.90
2023-10-26T11:20:38.529Z,15.00
2023-10-26T11:23:10.997Z,15.10
2023-10-26T11:25:39.153Z,15.20
2023-10-26T11:28:08.565Z,15.20
2023-10-26T11:30:50.275Z,15.30
2023-10-26T11:33:31.122Z,15.40
2023-10-26T11:35:59.689Z,15.50
2023-10-26T11:38:28.067Z,15.60
2023-10-26T11:40:56.801Z,15.70
2023-10-26T11:43:35.634Z,15.70
2023-10-26T11:46:07.396Z,15.80
2023-10-26T11:48:35.741Z,15.90
2023-10-26T11:51:04.763Z,16.00
2023-10-26T11:53:32.857Z,16.00
2023-10-26T11:56:00.841Z,16.10
2023-10-26T11:58:29.053Z,16.10
2023-10-26T12:00:56.878Z,16.10
2023-10-26T12:03:25.214Z,16.20
2023-10-26T12:05:53.129Z,16.20
2023-10-26T12:08:21.234Z,16.20
2023-10-26T12:10:49.268Z,16.10
2023-10-26T12:13:17.431Z,16.00
2023-10-26T12:15:45.193Z,16.00
2023-10-26T12:18:13.366Z,16.00
2023-10-26T12:20:41.433Z,16.10
2023-10-26T12:23:09.488Z,16.10
2023-10-26T12:28:21.257Z,16.30
2023-10-26T12:30:40.412Z,16.30
2023-10-26T12:33:08.327Z,16.20
2023-10-26T12:35:36.425Z,16.20
2023-10-26T12:38:04.209Z,16.10
2023-10-26T12:40:32.292Z,15.90
2023-10-26T12:43:00.064Z,15.80
2023-10-26T12:45:28.387Z,15.70
2023-10-26T12:47:56.920Z,15.70
2023-10-26T12:50:25.235Z,15.60
2023-10-26T12:52:53.489Z,15.60
2023-10-26T12:55:24.730Z,15.60
2023-10-26T12:57:53.972Z,15.60
2023-10-26T13:00:23.063Z,15.60
2023-10-26T13:02:51.412Z,15.60
2023-10-26T13:05:19.880Z,15.70
2023-10-26T13:07:47.627Z,15.70
2023-10-26T13:10:15.956Z,15.80
2023-10-26T13:12:45.037Z,15.80
2023-10-26T13:15:20.790Z,15.90
2023-10-26T13:17:50.210Z,15.90
2023-10-26T13:20:18.461Z,16.00
2023-10-26T13:22:46.372Z,16.00
2023-10-26T13:25:16.538Z,16.00
2023-10-26T13:27:44.633Z,15.90
2023-10-26T13:30:15.148Z,15.90
2023-10-26T13:32:46.100Z,15.90
2023-10-26T13:35:17.243Z,15.90
2023-10-26T13:37:45.494Z,15.90
2023-10-26T13:40:14.034Z,15.90
2023-10-26T13:42:41.916Z,15.90
2023-10-26T13:45:10.375Z,15.90
2023-10-26T13:47:38.652Z,15.90
2023-10-26T13:50:07.347Z,15.90
2023-10-26T13:52:35.117Z,15.90
2023-10-26T13:55:05.119Z,15.90
2023-10-26T13:57:32.888Z,15.90
2023-10-26T14:00:00.848Z,15.90
2023-10-26T14:02:28.781Z,15.80
2023-10-26T14:04:57.175Z,15.90
2023-10-26T14:07:25.021Z,15.90
2023-10-26T14:09:55.765Z,15.90
2023-10-26T14:12:23.824Z,16.00
2023-10-26T14:14:52.075Z,16.00
2023-10-26T14:17:20.048Z,16.10
2023-10-26T14:19:51.187Z,16.20
2023-10-26T14:22:19.026Z,16.30
2023-10-26T14:24:48.541Z,16.30
2023-10-26T14:27:16.404Z,16.40
2023-10-26T14:29:44.556Z,16.40
2023-10-26T14:32:14.421Z,16.40
2023-10-26T14:34:42.643Z,16.40
2023-10-26T14:37:11.251Z,16.40
2023-10-26T14:39:40.129Z,16.40
2023-10-26T14:42:08.171Z,16.40
2023-10-26T14:44:36.208Z,16.40
2023-10-26T14:47:04.353Z,16.40
2023-10-26T14:49:32.629Z,16.50
2023-10-26T14:52:01.230Z,16.50
2023-10-26T14:54:29.493Z,16.60
2023-10-26T14:56:57.436Z,16.60
2023-10-26T14:59:25.453Z,16.60
2023-10-26T15:01:53.433Z,16.60
2023-10-26T15:04:21.549Z,16.60
2023-10-26T15:06:52.041Z,16.50
2023-10-26T15:10:19.612Z,16.50
2023-10-26T15:12:08.340Z,16.40
2023-10-26T15:14:38.967Z,16.40
2023-10-26T15:17:06.751Z,16.30
2023-10-26T15:19:37.645Z,16.30
2023-10-26T15:22:05.464Z,16.20
2023-10-26T15:24:34.094Z,16.20
2023-10-26T15:27:01.826Z,16.10
2023-10-26T15:29:32.608Z,16.00
2023-10-26T15:32:00.926Z,16.00
2023-10-26T15:34:29.443Z,15.90
2023-10-26T15:36:57.698Z,15.90
2023-10-26T15:39:25.849Z,15.80
2023-10-26T15:41:53.689Z,15.80
2023-10-26T15:44:21.973Z,15.80
2023-10-26T15:46:52.701Z,15.70
2023-10-26T15:49:33.961Z,15.70
2023-10-26T15:52:05.307Z,15.60
2023-10-26T15:54:33.262Z,15.60
2023-10-26T15:57:01.560Z,15.50
2023-10-26T15:59:29.391Z,15.40
2023-10-26T16:01:57.654Z,15.40
2023-10-26T16:04:25.517Z,15.30
2023-10-26T16:06:56.441Z,15.30
2023-10-26T16:09:24.596Z,15.20
2023-10-26T16:11:52.680Z,15.10
2023-10-26T16:14:20.674Z,15.10
2023-10-26T16:16:48.964Z,15.00
2023-10-26T16:19:16.962Z,14.90
2023-10-26T16:21:45.344Z,14.90
2023-10-26T16:24:13.819Z,14.80
2023-10-26T16:26:42.081Z,14.80
2023-10-26T16:29:09.930Z,14.70
2023-10-26T16:31:38.157Z,14.70
2023-10-26T16:34:08.323Z,14.60
2023-10-26T16:36:36.580Z,14.60
2023-10-26T16:39:04.747Z,14.60
2023-10-26T16:41:33.014Z,14.50
2023-10-26T16:44:01.233Z,14.40
2023-10-26T16:46:31.553Z,14.30
2023-10-26T16:48:59.438Z,14.20
2023-10-26T16:51:27.630Z,14.10
2023-10-26T16:53:55.399Z,14.10
2023-10-26T16:56:25.054Z,14.00
2023-10-26T16:58:52.844Z,13.90
2023-10-26T17:01:20.951Z,13.90
2023-10-26T17:03:48.929Z,13.90
2023-10-26T17:06:17.312Z,13.80
2023-10-26T17:08:45.098Z,13.90
2023-10-26T17:11:13.413Z,13.90
2023-10-26T17:13:41.192Z,13.80
2023-10-26T17:16:09.453Z,13.80
2023-10-26T17:18:37.366Z,13.80
2023-10-26T17:21:52.265Z,13.80
2023-10-26T17:28:49.702Z,13.70
2023-10-26T17:31:28.004Z,13.70
2023-10-26T17:35:11.749Z,13.70
2023-10-26T17:38:32.803Z,13.70
2023-10-26T17:53:10.058Z,13.50
2023-10-26T17:56:13.424Z,13.40
2023-10-26T18:00:40.969Z,13.40
2023-10-26T18:03:12.037Z,13.40
2023-10-26T18:06:27.331Z,13.30
2023-10-26T18:10:16.824Z,13.30
2023-10-26T18:12:46.438Z,13.30
2023-10-26T18:15:14.577Z,13.30
2023-10-26T18:17:42.642Z,13.20
2023-10-26T18:20:10.762Z,13.20
2023-10-26T18:22:40.914Z,13.20
2023-10-26T18:25:10.637Z,13.10
2023-10-26T18:27:38.775Z,13.10
2023-10-26T18:30:09.117Z,13.10
2023-10-26T18:32:37.294Z,13.10
2023-10-26T18:35:05.518Z,13.10
2023-10-26T18:37:33.643Z,13.00
2023-10-26T18:40:01.646Z,13.00
2023-10-26T18:42:29.780Z,13.00
2023-10-26T18:45:00.079Z,12.90
2023-10-26T18:47:28.370Z,12.90
2023-10-26T18:49:56.321Z,12.90
2023-10-26T18:52:25.925Z,12.80
2023-10-26T18:54:54.021Z,12.80
2023-10-26T18:57:22.244Z,12.80
2023-10-26T18:59:49.947Z,12.70
2023-10-26T19:02:18.052Z,12.70
2023-10-26T19:04:45.970Z,12.70
2023-10-26T19:07:14.009Z,12.60
2023-10-26T19:09:41.951Z,12.60
2023-10-26T19:12:10.152Z,12.60
2023-10-26T19:14:37.877Z,12.50
2023-10-26T19:17:06.149Z,12.50
2023-10-26T19:19:34.150Z,12.50
2023-10-26T19:22:02.512Z,12.50
2023-10-26T19:24:30.403Z,12.40
2023-10-26T19:26:58.447Z,12.40
2023-10-26T19:29:26.262Z,12.30
2023-10-26T19:31:54.430Z,12.30
2023-10-26T19:34:24.450Z,12.20
2023-10-26T19:36:52.543Z,12.20
2023-10-26T19:39:20.318Z,12.10
2023-10-26T19:41:48.397Z,12.10
2023-10-26T19:44:16.282Z,12.00
2023-10-26T19:46:44.954Z,12.00
2023-10-26T19:49:12.835Z,11.90
2023-10-26T19:51:40.947Z,11.90
2023-10-26T19:54:08.641Z,11.80
2023-10-26T19:56:36.693Z,11.80
2023-10-26T19:59:04.913Z,11.80
2023-10-26T20:01:33.083Z,11.80
2023-10-26T20:04:01.629Z,11.80
2023-10-26T20:06:29.783Z,11.80
2023-10-26T20:08:57.625Z,11.70
2023-10-26T20:11:25.706Z,11.70
2023-10-26T20:13:53.524Z,11.70
2023-10-26T20:16:24.383Z,11.70
2023-10-26T20:18:52.362Z,11.70
2023-10-26T20:21:20.452Z,11.70
2023-10-26T20:23:50.551Z,11.70
2023-10-26T20:26:18.683Z,11.70
2023-10-26T20:28:49.017Z,11.70
2023-10-26T20:31:17.239Z,11.60
2023-10-26T20:33:45.031Z,11.60
2023-10-26T20:36:14.430Z,11.60
2023-10-26T20:38:42.224Z,11.60
2023-10-26T20:41:12.736Z,11.60
2023-10-26T20:43:40.529Z,11.60
2023-10-26T20:46:08.897Z,11.60
2023-10-26T20:48:38.096Z,11.60
2023-10-26T20:51:10.858Z,11.60
2023-10-26T20:53:39.514Z,11.60
2023-10-26T20:56:09.467Z,11.50
2023-10-26T20:58:37.569Z,11.50
2023-10-26T21:01:11.725Z,11.50
2023-10-26T21:03:40.906Z,11.40
2023-10-26T21:06:11.175Z,11.40
2023-10-26T21:08:39.369Z,11.30
2023-10-26T21:11:16.700Z,11.30
2023-10-26T21:13:45.061Z,11.30
2023-10-26T21:16:13.338Z,11.30
2023-10-26T21:18:41.244Z,11.30
2023-10-26T21:21:09.705Z,11.20
2023-10-26T21:23:38.983Z,11.20
2023-10-26T21:26:08.413Z,11.20
2023-10-26T21:28:38.749Z,11.20
2023-10-26T21:31:07.241Z,11.20
2023-10-26T21:33:35.486Z,11.20
2023-10-26T21:36:10.101Z,11.20
2023-10-26T21:38:38.409Z,11.10
2023-10-26T21:41:06.582Z,11.10
2023-10-26T21:43:34.942Z,11.10
2023-10-26T21:46:07.594Z,11.10
2023-10-26T21:48:36.173Z,11.00
2023-10-26T21:51:08.484Z,11.00
2023-10-26T21:53:41.670Z,11.00
2023-10-26T21:56:09.971Z,11.00
2023-10-26T21:58:39.356Z,11.00
2023-10-26T22:01:10.591Z,11.00
2023-10-26T22:03:38.951Z,11.00
2023-10-26T22:06:07.315Z,10.90
2023-10-26T22:08:35.443Z,10.90
2023-10-26T22:11:04.095Z,10.90
2023-10-26T22:13:32.953Z,10.80
2023-10-26T22:16:01.141Z,10.80
2023-10-26T22:18:29.184Z,10.80
2023-10-26T22:21:04.719Z,10.80
2023-10-26T22:23:32.682Z,10.80
2023-10-26T22:26:01.549Z,10.80
2023-10-26T22:28:30.857Z,10.80
2023-10-26T22:31:01.625Z,10.80
2023-10-26T22:33:31.096Z,10.80
2023-10-26T22:35:59.168Z,10.70
2023-10-26T22:38:26.863Z,10.80
2023-10-26T22:43:23.030Z,10.80
2023-10-26T22:45:51.116Z,10.80
2023-10-26T22:48:18.934Z,10.80
2023-10-26T22:50:46.989Z,10.80
2023-10-26T22:53:16.612Z,10.70
2023-10-26T22:55:44.658Z,10.80
2023-10-26T22:58:12.683Z,10.70
2023-10-26T23:00:40.822Z,10.70
2023-10-26T23:03:08.972Z,10.70
2023-10-26T23:05:42.070Z,10.70
2023-10-26T23:08:10.835Z,10.60
2023-10-26T23:10:38.930Z,10.60
2023-10-26T23:13:06.743Z,10.60
2023-10-26T23:15:34.789Z,10.50
2023-10-26T23:18:02.637Z,10.50
2023-10-26T23:20:31.071Z,10.50
2023-10-26T23:22:58.954Z,10.50
2023-10-26T23:25:27.129Z,10.40
2023-10-26T23:27:54.951Z,10.40
2023-10-26T23:30:23.197Z,10.40
2023-10-26T23:32:51.909Z,10.30
2023-10-26T23:35:20.160Z,10.30
2023-10-26T23:37:47.871Z,10.30
2023-10-26T23:40:15.951Z,10.30
2023-10-26T23:42:43.725Z,10.30
2023-10-26T23:45:11.874Z,10.30
2023-10-26T23:47:39.761Z,10.30
2023-10-26T23:50:08.374Z,10.30
2023-10-26T23:52:39.017Z,10.30
2023-10-26T23:55:07.878Z,10.30
2023-10-26T23:57:35.749Z,10.30
